sensor_id;sensor_type;location;lat;lon;timestamp;temperature;humidity
11107;DHT22;5607;48.302;14.294;2023-10-13T00:01:44;16.80;1.00
11107;DHT22;5607;48.302;14.294;2023-10-13T00:04:33;16.80;1.00
11107;DHT22;5607;48.302;14.294;2023-10-13T00:07:21;16.80;1.00
11107;DHT22;5607;48.302;14.294;2023-10-13T00:10:09;16.80;1.00
11107;DHT22;5607;48.302;14.294;2023-10-13T00:12:56;16.80;1.00
11107;DHT22;5607;48.302;14.294;2023-10-13T00:16:11;16.80;1.00
11107;DHT22;5607;48.302;14.294;2023-10-13T00:19:03;16.80;1.00
11107;DHT22;5607;48.302;14.294;2023-10-13T00:21:51;16.80;1.00
11107;DHT22;5607;48.302;14.294;2023-10-13T00:24:42;16.90;1.00
11107;DHT22;5607;48.302;14.294;2023-10-13T00:27:28;16.90;1.00
11107;DHT22;5607;48.302;14.294;2023-10-13T00:30:27;17.00;1.00
11107;DHT22;5607;48.302;14.294;2023-10-13T00:33:22;17.00;1.00
11107;DHT22;5607;48.302;14.294;2023-10-13T00:36:09;17.00;1.00
11107;DHT22;5607;48.302;14.294;2023-10-13T00:39:05;17.00;1.00
11107;DHT22;5607;48.302;14.294;2023-10-13T00:41:52;17.00;1.00
11107;DHT22;5607;48.302;14.294;2023-10-13T00:44:38;17.00;1.00
11107;DHT22;5607;48.302;14.294;2023-10-13T00:47:28;17.00;1.00
11107;DHT22;5607;48.302;14.294;2023-10-13T00:50:41;17.00;1.00
11107;DHT22;5607;48.302;14.294;2023-10-13T00:53:27;17.00;1.00
11107;DHT22;5607;48.302;14.294;2023-10-13T00:56:15;17.00;1.00
11107;DHT22;5607;48.302;14.294;2023-10-13T00:59:13;17.00;1.00
11107;DHT22;5607;48.302;14.294;2023-10-13T01:02:00;17.00;1.00
11107;DHT22;5607;48.302;14.294;2023-10-13T01:05:07;17.10;1.00
11107;DHT22;5607;48.302;14.294;2023-10-13T01:07:55;17.00;1.00
11107;DHT22;5607;48.302;14.294;2023-10-13T01:10:42;17.00;1.00
11107;DHT22;5607;48.302;14.294;2023-10-13T01:13:28;17.00;1.00
11107;DHT22;5607;48.302;14.294;2023-10-13T01:16:17;16.90;1.00
11107;DHT22;5607;48.302;14.294;2023-10-13T01:19:08;16.80;1.00
11107;DHT22;5607;48.302;14.294;2023-10-13T01:21:57;16.80;1.00
11107;DHT22;5607;48.302;14.294;2023-10-13T01:24:49;16.70;1.00
11107;DHT22;5607;48.302;14.294;2023-10-13T01:27:36;16.70;1.00
11107;DHT22;5607;48.302;14.294;2023-10-13T01:30:24;16.70;1.00
11107;DHT22;5607;48.302;14.294;2023-10-13T01:33:12;16.60;1.00
11107;DHT22;5607;48.302;14.294;2023-10-13T01:35:58;16.60;1.00
11107;DHT22;5607;48.302;14.294;2023-10-13T01:38:47;16.50;1.00
11107;DHT22;5607;48.302;14.294;2023-10-13T01:41:33;16.50;1.00
11107;DHT22;5607;48.302;14.294;2023-10-13T01:44:26;16.40;1.00
11107;DHT22;5607;48.302;14.294;2023-10-13T01:47:19;16.40;1.00
11107;DHT22;5607;48.302;14.294;2023-10-13T01:50:08;16.50;1.00
11107;DHT22;5607;48.302;14.294;2023-10-13T01:53:15;16.40;1.00
11107;DHT22;5607;48.302;14.294;2023-10-13T01:56:06;16.50;1.00
11107;DHT22;5607;48.302;14.294;2023-10-13T01:59:00;16.40;1.00
11107;DHT22;5607;48.302;14.294;2023-10-13T02:01:46;16.40;1.00
11107;DHT22;5607;48.302;14.294;2023-10-13T02:04:33;16.40;1.00
11107;DHT22;5607;48.302;14.294;2023-10-13T02:07:19;16.40;1.00
11107;DHT22;5607;48.302;14.294;2023-10-13T02:10:06;16.30;1.00
11107;DHT22;5607;48.302;14.294;2023-10-13T02:12:52;16.30;1.00
11107;DHT22;5607;48.302;14.294;2023-10-13T02:15:41;16.20;1.00
11107;DHT22;5607;48.302;14.294;2023-10-13T02:18:30;16.20;1.00
11107;DHT22;5607;48.302;14.294;2023-10-13T02:21:28;16.20;1.00
11107;DHT22;5607;48.302;14.294;2023-10-13T02:24:17;16.20;1.00
11107;DHT22;5607;48.302;14.294;2023-10-13T02:27:04;16.20;1.00
11107;DHT22;5607;48.302;14.294;2023-10-13T02:29:59;16.30;1.00
11107;DHT22;5607;48.302;14.294;2023-10-13T02:32:45;16.30;1.00
11107;DHT22;5607;48.302;14.294;2023-10-13T02:35:32;16.30;1.00
11107;DHT22;5607;48.302;14.294;2023-10-13T02:38:27;16.30;1.00
11107;DHT22;5607;48.302;14.294;2023-10-13T02:41:19;16.20;1.00
11107;DHT22;5607;48.302;14.294;2023-10-13T02:44:12;16.20;1.00
11107;DHT22;5607;48.302;14.294;2023-10-13T02:47:06;16.10;1.00
11107;DHT22;5607;48.302;14.294;2023-10-13T02:50:00;16.10;1.00
11107;DHT22;5607;48.302;14.294;2023-10-13T02:52:53;16.10;1.00
11107;DHT22;5607;48.302;14.294;2023-10-13T02:58:59;16.00;1.00
11107;DHT22;5607;48.302;14.294;2023-10-13T03:01:50;15.90;1.00
11107;DHT22;5607;48.302;14.294;2023-10-13T03:04:38;15.90;1.00
11107;DHT22;5607;48.302;14.294;2023-10-13T03:07:28;15.80;1.00
11107;DHT22;5607;48.302;14.294;2023-10-13T03:10:14;15.80;1.00
11107;DHT22;5607;48.302;14.294;2023-10-13T03:13:01;15.80;1.00
11107;DHT22;5607;48.302;14.294;2023-10-13T03:15:48;15.80;1.00
11107;DHT22;5607;48.302;14.294;2023-10-13T03:18:34;15.80;1.00
11107;DHT22;5607;48.302;14.294;2023-10-13T03:21:23;15.80;1.00
11107;DHT22;5607;48.302;14.294;2023-10-13T03:24:15;15.70;1.00
11107;DHT22;5607;48.302;14.294;2023-10-13T03:27:02;15.70;1.00
11107;DHT22;5607;48.302;14.294;2023-10-13T03:29:55;15.60;1.00
11107;DHT22;5607;48.302;14.294;2023-10-13T03:32:42;15.60;1.00
11107;DHT22;5607;48.302;14.294;2023-10-13T03:35:40;15.60;1.00
11107;DHT22;5607;48.302;14.294;2023-10-13T03:38:29;15.50;1.00
11107;DHT22;5607;48.302;14.294;2023-10-13T03:41:15;15.50;1.00
11107;DHT22;5607;48.302;14.294;2023-10-13T03:44:07;15.50;1.40
11107;DHT22;5607;48.302;14.294;2023-10-13T03:47:03;15.50;1.00
11107;DHT22;5607;48.302;14.294;2023-10-13T03:50:04;15.50;1.00
11107;DHT22;5607;48.302;14.294;2023-10-13T03:53:08;15.50;1.40
11107;DHT22;5607;48.302;14.294;2023-10-13T03:55:59;15.40;1.00
11107;DHT22;5607;48.302;14.294;2023-10-13T03:58:55;15.40;1.00
11107;DHT22;5607;48.302;14.294;2023-10-13T04:01:46;15.40;1.00
11107;DHT22;5607;48.302;14.294;2023-10-13T04:04:33;15.40;1.00
11107;DHT22;5607;48.302;14.294;2023-10-13T04:07:34;15.30;1.00
11107;DHT22;5607;48.302;14.294;2023-10-13T04:10:21;15.40;1.00
11107;DHT22;5607;48.302;14.294;2023-10-13T04:13:25;15.40;1.00
11107;DHT22;5607;48.302;14.294;2023-10-13T04:16:30;15.30;1.00
11107;DHT22;5607;48.302;14.294;2023-10-13T04:19:16;15.40;1.00
11107;DHT22;5607;48.302;14.294;2023-10-13T04:22:09;15.40;1.00
11107;DHT22;5607;48.302;14.294;2023-10-13T04:25:06;15.40;1.00
11107;DHT22;5607;48.302;14.294;2023-10-13T04:28:13;15.50;1.00
11107;DHT22;5607;48.302;14.294;2023-10-13T04:31:00;15.50;1.00
11107;DHT22;5607;48.302;14.294;2023-10-13T04:33:57;15.50;1.00
11107;DHT22;5607;48.302;14.294;2023-10-13T04:36:48;15.50;1.00
11107;DHT22;5607;48.302;14.294;2023-10-13T04:39:41;15.50;1.00
11107;DHT22;5607;48.302;14.294;2023-10-13T04:42:29;15.40;1.00
11107;DHT22;5607;48.302;14.294;2023-10-13T04:45:34;15.40;1.00
11107;DHT22;5607;48.302;14.294;2023-10-13T04:48:20;15.30;1.00
11107;DHT22;5607;48.302;14.294;2023-10-13T04:51:09;15.30;1.00
11107;DHT22;5607;48.302;14.294;2023-10-13T04:54:28;15.30;1.00
11107;DHT22;5607;48.302;14.294;2023-10-13T04:57:33;15.20;1.00
11107;DHT22;5607;48.302;14.294;2023-10-13T05:00:39;15.20;1.00
11107;DHT22;5607;48.302;14.294;2023-10-13T05:03:44;15.10;1.00
11107;DHT22;5607;48.302;14.294;2023-10-13T05:06:48;15.20;1.00
11107;DHT22;5607;48.302;14.294;2023-10-13T05:09:53;15.20;1.00
11107;DHT22;5607;48.302;14.294;2023-10-13T05:12:57;15.10;1.00
11107;DHT22;5607;48.302;14.294;2023-10-13T05:16:02;15.20;1.00
11107;DHT22;5607;48.302;14.294;2023-10-13T05:19:06;15.30;1.00
11107;DHT22;5607;48.302;14.294;2023-10-13T05:22:11;15.20;1.00
11107;DHT22;5607;48.302;14.294;2023-10-13T05:25:16;15.20;1.00
11107;DHT22;5607;48.302;14.294;2023-10-13T05:28:21;15.10;1.00
11107;DHT22;5607;48.302;14.294;2023-10-13T05:31:26;15.10;1.00
11107;DHT22;5607;48.302;14.294;2023-10-13T05:34:31;15.10;1.00
11107;DHT22;5607;48.302;14.294;2023-10-13T05:37:36;15.10;1.00
11107;DHT22;5607;48.302;14.294;2023-10-13T05:44:01;15.20;1.00
11107;DHT22;5607;48.302;14.294;2023-10-13T05:47:06;15.30;1.00
11107;DHT22;5607;48.302;14.294;2023-10-13T05:50:30;15.30;1.00
11107;DHT22;5607;48.302;14.294;2023-10-13T05:53:36;15.40;1.00
11107;DHT22;5607;48.302;14.294;2023-10-13T05:56:41;15.40;1.00
11107;DHT22;5607;48.302;14.294;2023-10-13T05:59:45;15.40;1.00
11107;DHT22;5607;48.302;14.294;2023-10-13T06:02:50;15.50;1.00
11107;DHT22;5607;48.302;14.294;2023-10-13T06:05:55;15.50;1.00
11107;DHT22;5607;48.302;14.294;2023-10-13T06:09:00;15.50;1.00
11107;DHT22;5607;48.302;14.294;2023-10-13T06:12:06;15.60;1.00
11107;DHT22;5607;48.302;14.294;2023-10-13T06:15:10;15.60;1.00
11107;DHT22;5607;48.302;14.294;2023-10-13T06:18:15;15.70;1.00
11107;DHT22;5607;48.302;14.294;2023-10-13T06:21:20;15.70;1.00
11107;DHT22;5607;48.302;14.294;2023-10-13T06:24:25;15.70;1.00
11107;DHT22;5607;48.302;14.294;2023-10-13T06:27:30;15.80;1.00
11107;DHT22;5607;48.302;14.294;2023-10-13T06:30:35;15.90;1.00
11107;DHT22;5607;48.302;14.294;2023-10-13T06:33:21;15.90;1.00
11107;DHT22;5607;48.302;14.294;2023-10-13T06:36:08;15.90;1.00
11107;DHT22;5607;48.302;14.294;2023-10-13T06:38:57;16.00;1.00
11107;DHT22;5607;48.302;14.294;2023-10-13T06:42:03;16.00;1.00
11107;DHT22;5607;48.302;14.294;2023-10-13T06:44:49;16.10;1.00
11107;DHT22;5607;48.302;14.294;2023-10-13T06:47:39;16.20;1.00
11107;DHT22;5607;48.302;14.294;2023-10-13T06:50:28;16.20;1.00
11107;DHT22;5607;48.302;14.294;2023-10-13T06:53:15;16.30;1.00
11107;DHT22;5607;48.302;14.294;2023-10-13T06:56:05;16.30;1.00
11107;DHT22;5607;48.302;14.294;2023-10-13T06:58:51;16.40;1.00
11107;DHT22;5607;48.302;14.294;2023-10-13T07:01:45;16.60;1.00
11107;DHT22;5607;48.302;14.294;2023-10-13T07:04:34;16.70;1.00
11107;DHT22;5607;48.302;14.294;2023-10-13T07:07:20;16.70;1.00
11107;DHT22;5607;48.302;14.294;2023-10-13T07:10:11;16.70;1.00
11107;DHT22;5607;48.302;14.294;2023-10-13T07:12:57;16.60;1.00
11107;DHT22;5607;48.302;14.294;2023-10-13T07:15:46;16.60;1.00
11107;DHT22;5607;48.302;14.294;2023-10-13T07:18:32;16.70;1.00
11107;DHT22;5607;48.302;14.294;2023-10-13T07:21:22;16.70;1.00
11107;DHT22;5607;48.302;14.294;2023-10-13T07:24:17;16.70;1.00
11107;DHT22;5607;48.302;14.294;2023-10-13T07:27:03;16.80;1.00
11107;DHT22;5607;48.302;14.294;2023-10-13T07:29:52;16.90;1.00
11107;DHT22;5607;48.302;14.294;2023-10-13T07:32:43;17.20;1.00
11107;DHT22;5607;48.302;14.294;2023-10-13T07:35:32;17.10;1.00
11107;DHT22;5607;48.302;14.294;2023-10-13T07:38:21;17.20;1.00
11107;DHT22;5607;48.302;14.294;2023-10-13T07:41:08;17.40;1.00
11107;DHT22;5607;48.302;14.294;2023-10-13T07:43:54;17.50;1.00
11107;DHT22;5607;48.302;14.294;2023-10-13T07:46:43;17.60;1.00
11107;DHT22;5607;48.302;14.294;2023-10-13T07:49:34;17.70;1.00
11107;DHT22;5607;48.302;14.294;2023-10-13T07:52:23;17.90;1.00
11107;DHT22;5607;48.302;14.294;2023-10-13T07:55:24;18.10;99.90
11107;DHT22;5607;48.302;14.294;2023-10-13T07:58:10;18.10;99.90
11107;DHT22;5607;48.302;14.294;2023-10-13T08:00:59;18.30;99.90
11107;DHT22;5607;48.302;14.294;2023-10-13T08:03:56;18.40;99.90
11107;DHT22;5607;48.302;14.294;2023-10-13T08:06:57;18.60;99.90
11107;DHT22;5607;48.302;14.294;2023-10-13T08:09:57;18.80;99.90
11107;DHT22;5607;48.302;14.294;2023-10-13T08:12:45;18.90;99.90
11107;DHT22;5607;48.302;14.294;2023-10-13T08:15:31;19.00;99.90
11107;DHT22;5607;48.302;14.294;2023-10-13T08:18:18;19.10;99.90
11107;DHT22;5607;48.302;14.294;2023-10-13T08:21:16;19.30;99.90
11107;DHT22;5607;48.302;14.294;2023-10-13T08:24:03;19.50;99.90
11107;DHT22;5607;48.302;14.294;2023-10-13T08:26:53;19.60;99.90
11107;DHT22;5607;48.302;14.294;2023-10-13T08:29:43;19.80;99.90
11107;DHT22;5607;48.302;14.294;2023-10-13T08:32:42;19.80;99.90
11107;DHT22;5607;48.302;14.294;2023-10-13T08:35:44;20.00;99.90
11107;DHT22;5607;48.302;14.294;2023-10-13T08:38:49;20.10;99.90
11107;DHT22;5607;48.302;14.294;2023-10-13T08:41:41;20.20;99.90
11107;DHT22;5607;48.302;14.294;2023-10-13T08:44:40;20.30;99.90
11107;DHT22;5607;48.302;14.294;2023-10-13T08:47:31;20.30;99.90
11107;DHT22;5607;48.302;14.294;2023-10-13T08:50:22;20.30;99.90
11107;DHT22;5607;48.302;14.294;2023-10-13T08:53:34;20.40;99.90
11107;DHT22;5607;48.302;14.294;2023-10-13T09:03:31;20.70;99.90
11107;DHT22;5607;48.302;14.294;2023-10-13T09:06:28;20.70;99.90
11107;DHT22;5607;48.302;14.294;2023-10-13T09:09:14;20.80;99.90
11107;DHT22;5607;48.302;14.294;2023-10-13T09:12:13;20.80;99.90
11107;DHT22;5607;48.302;14.294;2023-10-13T09:15:04;20.80;99.90
11107;DHT22;5607;48.302;14.294;2023-10-13T09:18:10;20.80;99.90
11107;DHT22;5607;48.302;14.294;2023-10-13T09:21:01;20.70;99.90
11107;DHT22;5607;48.302;14.294;2023-10-13T09:24:09;20.80;99.90
11107;DHT22;5607;48.302;14.294;2023-10-13T09:27:22;20.70;99.90
11107;DHT22;5607;48.302;14.294;2023-10-13T09:30:12;20.70;99.90
11107;DHT22;5607;48.302;14.294;2023-10-13T09:33:08;20.70;99.90
11107;DHT22;5607;48.302;14.294;2023-10-13T09:35:55;20.70;99.90
11107;DHT22;5607;48.302;14.294;2023-10-13T09:38:45;20.70;99.90
11107;DHT22;5607;48.302;14.294;2023-10-13T09:41:36;20.80;99.90
11107;DHT22;5607;48.302;14.294;2023-10-13T09:44:26;20.80;99.90
11107;DHT22;5607;48.302;14.294;2023-10-13T09:47:20;20.90;99.90
11107;DHT22;5607;48.302;14.294;2023-10-13T09:50:10;21.00;99.90
11107;DHT22;5607;48.302;14.294;2023-10-13T09:53:10;21.00;99.90
11107;DHT22;5607;48.302;14.294;2023-10-13T09:56:06;21.10;99.90
11107;DHT22;5607;48.302;14.294;2023-10-13T09:59:01;21.10;99.90
11107;DHT22;5607;48.302;14.294;2023-10-13T10:01:55;21.10;99.90
11107;DHT22;5607;48.302;14.294;2023-10-13T10:04:52;21.20;99.90
11107;DHT22;5607;48.302;14.294;2023-10-13T10:07:39;21.20;99.90
11107;DHT22;5607;48.302;14.294;2023-10-13T10:10:55;21.30;99.90
11107;DHT22;5607;48.302;14.294;2023-10-13T10:13:40;21.40;99.90
11107;DHT22;5607;48.302;14.294;2023-10-13T10:16:39;21.50;99.90
11107;DHT22;5607;48.302;14.294;2023-10-13T10:19:32;21.60;99.90
11107;DHT22;5607;48.302;14.294;2023-10-13T10:22:25;21.70;99.90
11107;DHT22;5607;48.302;14.294;2023-10-13T10:25:14;21.80;99.90
11107;DHT22;5607;48.302;14.294;2023-10-13T10:28:13;21.90;99.90
11107;DHT22;5607;48.302;14.294;2023-10-13T10:31:05;21.90;99.90
11107;DHT22;5607;48.302;14.294;2023-10-13T10:33:55;22.00;99.90
11107;DHT22;5607;48.302;14.294;2023-10-13T10:36:42;22.10;99.90
11107;DHT22;5607;48.302;14.294;2023-10-13T10:39:35;22.20;99.90
11107;DHT22;5607;48.302;14.294;2023-10-13T10:42:35;22.40;99.90
11107;DHT22;5607;48.302;14.294;2023-10-13T10:45:22;22.40;99.90
11107;DHT22;5607;48.302;14.294;2023-10-13T10:48:08;22.50;99.90
11107;DHT22;5607;48.302;14.294;2023-10-13T10:51:04;22.40;99.90
11107;DHT22;5607;48.302;14.294;2023-10-13T10:53:53;22.50;99.90
11107;DHT22;5607;48.302;14.294;2023-10-13T10:56:39;22.70;99.90
11107;DHT22;5607;48.302;14.294;2023-10-13T10:59:26;22.80;99.90
11107;DHT22;5607;48.302;14.294;2023-10-13T11:02:15;22.90;99.90
11107;DHT22;5607;48.302;14.294;2023-10-13T11:05:01;22.90;99.90
11107;DHT22;5607;48.302;14.294;2023-10-13T11:07:48;23.00;99.90
11107;DHT22;5607;48.302;14.294;2023-10-13T11:10:45;23.10;99.90
11107;DHT22;5607;48.302;14.294;2023-10-13T11:13:41;23.20;99.90
11107;DHT22;5607;48.302;14.294;2023-10-13T11:16:36;23.20;99.90
11107;DHT22;5607;48.302;14.294;2023-10-13T11:19:36;23.30;99.90
11107;DHT22;5607;48.302;14.294;2023-10-13T11:22:24;23.40;99.90
11107;DHT22;5607;48.302;14.294;2023-10-13T11:25:22;23.50;99.90
11107;DHT22;5607;48.302;14.294;2023-10-13T11:28:12;23.70;99.90
11107;DHT22;5607;48.302;14.294;2023-10-13T11:31:13;23.80;99.90
11107;DHT22;5607;48.302;14.294;2023-10-13T11:34:05;23.90;99.90
11107;DHT22;5607;48.302;14.294;2023-10-13T11:36:52;23.90;99.90
11107;DHT22;5607;48.302;14.294;2023-10-13T11:39:39;24.10;99.90
11107;DHT22;5607;48.302;14.294;2023-10-13T11:42:28;24.10;99.90
11107;DHT22;5607;48.302;14.294;2023-10-13T11:45:14;24.30;99.90
11107;DHT22;5607;48.302;14.294;2023-10-13T11:48:17;24.30;99.90
11107;DHT22;5607;48.302;14.294;2023-10-13T11:51:12;24.30;99.90
11107;DHT22;5607;48.302;14.294;2023-10-13T11:54:13;24.40;99.90
11107;DHT22;5607;48.302;14.294;2023-10-13T11:56:59;24.60;99.90
11107;DHT22;5607;48.302;14.294;2023-10-13T11:59:46;24.60;99.90
11107;DHT22;5607;48.302;14.294;2023-10-13T12:02:39;24.70;99.90
11107;DHT22;5607;48.302;14.294;2023-10-13T12:05:44;24.70;99.90
11107;DHT22;5607;48.302;14.294;2023-10-13T12:08:52;24.90;99.90
11107;DHT22;5607;48.302;14.294;2023-10-13T12:11:38;24.90;99.90
11107;DHT22;5607;48.302;14.294;2023-10-13T12:14:27;25.00;99.90
11107;DHT22;5607;48.302;14.294;2023-10-13T12:17:15;25.10;99.90
11107;DHT22;5607;48.302;14.294;2023-10-13T12:20:07;25.20;99.90
11107;DHT22;5607;48.302;14.294;2023-10-13T12:22:57;25.20;99.90
11107;DHT22;5607;48.302;14.294;2023-10-13T12:25:45;25.20;99.90
11107;DHT22;5607;48.302;14.294;2023-10-13T12:28:43;25.20;99.90
11107;DHT22;5607;48.302;14.294;2023-10-13T12:31:37;25.30;99.90
11107;DHT22;5607;48.302;14.294;2023-10-13T12:34:25;25.30;99.90
11107;DHT22;5607;48.302;14.294;2023-10-13T12:37:31;25.40;99.90
11107;DHT22;5607;48.302;14.294;2023-10-13T12:40:29;25.60;99.90
11107;DHT22;5607;48.302;14.294;2023-10-13T12:43:34;25.70;99.90
11107;DHT22;5607;48.302;14.294;2023-10-13T12:46:39;25.70;99.90
11107;DHT22;5607;48.302;14.294;2023-10-13T12:49:44;25.80;99.90
11107;DHT22;5607;48.302;14.294;2023-10-13T12:52:34;25.90;99.90
11107;DHT22;5607;48.302;14.294;2023-10-13T12:55:20;25.90;99.90
11107;DHT22;5607;48.302;14.294;2023-10-13T12:58:10;25.90;99.90
11107;DHT22;5607;48.302;14.294;2023-10-13T13:00:59;26.00;99.90
11107;DHT22;5607;48.302;14.294;2023-10-13T13:03:52;26.10;99.90
11107;DHT22;5607;48.302;14.294;2023-10-13T13:06:42;26.10;99.90
11107;DHT22;5607;48.302;14.294;2023-10-13T13:09:28;26.20;99.90
11107;DHT22;5607;48.302;14.294;2023-10-13T13:12:14;26.30;99.90
11107;DHT22;5607;48.302;14.294;2023-10-13T13:15:00;26.30;99.90
11107;DHT22;5607;48.302;14.294;2023-10-13T13:17:54;26.40;99.90
11107;DHT22;5607;48.302;14.294;2023-10-13T13:20:40;26.40;99.90
11107;DHT22;5607;48.302;14.294;2023-10-13T13:23:38;26.40;99.90
11107;DHT22;5607;48.302;14.294;2023-10-13T13:26:26;26.40;99.90
11107;DHT22;5607;48.302;14.294;2023-10-13T13:29:13;26.30;99.90
11107;DHT22;5607;48.302;14.294;2023-10-13T13:31:59;26.40;99.90
11107;DHT22;5607;48.302;14.294;2023-10-13T13:34:46;26.50;99.90
11107;DHT22;5607;48.302;14.294;2023-10-13T13:37:40;26.40;99.90
11107;DHT22;5607;48.302;14.294;2023-10-13T13:40:29;26.30;99.90
11107;DHT22;5607;48.302;14.294;2023-10-13T13:43:21;26.20;99.90
11107;DHT22;5607;48.302;14.294;2023-10-13T13:46:27;26.20;99.90
11107;DHT22;5607;48.302;14.294;2023-10-13T13:49:14;26.20;99.90
11107;DHT22;5607;48.302;14.294;2023-10-13T13:52:04;26.10;99.90
11107;DHT22;5607;48.302;14.294;2023-10-13T13:54:51;26.10;99.90
11107;DHT22;5607;48.302;14.294;2023-10-13T13:57:37;26.00;99.90
11107;DHT22;5607;48.302;14.294;2023-10-13T14:00:23;25.90;99.90
11107;DHT22;5607;48.302;14.294;2023-10-13T14:03:23;25.80;99.90
11107;DHT22;5607;48.302;14.294;2023-10-13T14:06:19;25.80;99.90
11107;DHT22;5607;48.302;14.294;2023-10-13T14:09:13;25.70;99.90
11107;DHT22;5607;48.302;14.294;2023-10-13T14:12:02;25.60;99.90
11107;DHT22;5607;48.302;14.294;2023-10-13T14:15:08;25.60;99.90
11107;DHT22;5607;48.302;14.294;2023-10-13T14:18:09;25.50;99.90
11107;DHT22;5607;48.302;14.294;2023-10-13T14:21:01;25.40;99.90
11107;DHT22;5607;48.302;14.294;2023-10-13T14:23:50;25.30;99.90
11107;DHT22;5607;48.302;14.294;2023-10-13T14:26:39;25.30;99.90
11107;DHT22;5607;48.302;14.294;2023-10-13T14:29:28;25.30;99.90
11107;DHT22;5607;48.302;14.294;2023-10-13T14:32:15;25.20;99.90
11107;DHT22;5607;48.302;14.294;2023-10-13T14:35:01;25.20;99.90
11107;DHT22;5607;48.302;14.294;2023-10-13T14:37:57;25.10;99.90
11107;DHT22;5607;48.302;14.294;2023-10-13T14:40:43;25.10;99.90
11107;DHT22;5607;48.302;14.294;2023-10-13T14:43:29;25.10;99.90
11107;DHT22;5607;48.302;14.294;2023-10-13T14:46:19;25.00;99.90
11107;DHT22;5607;48.302;14.294;2023-10-13T14:49:09;25.00;99.90
11107;DHT22;5607;48.302;14.294;2023-10-13T14:51:55;25.00;99.90
11107;DHT22;5607;48.302;14.294;2023-10-13T14:54:42;25.00;99.90
11107;DHT22;5607;48.302;14.294;2023-10-13T14:57:28;24.90;99.90
11107;DHT22;5607;48.302;14.294;2023-10-13T15:00:14;24.90;99.90
11107;DHT22;5607;48.302;14.294;2023-10-13T15:03:01;24.90;99.90
11107;DHT22;5607;48.302;14.294;2023-10-13T15:05:47;24.90;99.90
11107;DHT22;5607;48.302;14.294;2023-10-13T15:08:33;24.80;99.90
11107;DHT22;5607;48.302;14.294;2023-10-13T15:11:20;24.70;99.90
11107;DHT22;5607;48.302;14.294;2023-10-13T15:14:06;24.70;99.90
11107;DHT22;5607;48.302;14.294;2023-10-13T15:16:52;24.60;99.90
11107;DHT22;5607;48.302;14.294;2023-10-13T15:19:40;24.50;99.90
11107;DHT22;5607;48.302;14.294;2023-10-13T15:22:32;24.40;99.90
11107;DHT22;5607;48.302;14.294;2023-10-13T15:25:22;24.30;99.90
11107;DHT22;5607;48.302;14.294;2023-10-13T15:28:15;24.30;99.90
11107;DHT22;5607;48.302;14.294;2023-10-13T15:31:12;24.30;99.90
11107;DHT22;5607;48.302;14.294;2023-10-13T15:34:11;24.20;99.90
11107;DHT22;5607;48.302;14.294;2023-10-13T15:37:01;24.10;99.90
11107;DHT22;5607;48.302;14.294;2023-10-13T15:39:52;23.90;99.90
11107;DHT22;5607;48.302;14.294;2023-10-13T15:42:38;23.80;99.90
11107;DHT22;5607;48.302;14.294;2023-10-13T15:45:29;23.70;99.90
11107;DHT22;5607;48.302;14.294;2023-10-13T15:48:25;23.60;99.90
11107;DHT22;5607;48.302;14.294;2023-10-13T15:51:11;23.50;99.90
11107;DHT22;5607;48.302;14.294;2023-10-13T15:54:04;23.50;99.90
11107;DHT22;5607;48.302;14.294;2023-10-13T15:56:52;23.40;99.90
11107;DHT22;5607;48.302;14.294;2023-10-13T15:59:40;23.30;99.90
11107;DHT22;5607;48.302;14.294;2023-10-13T16:02:26;23.20;99.90
11107;DHT22;5607;48.302;14.294;2023-10-13T16:05:12;23.20;99.90
11107;DHT22;5607;48.302;14.294;2023-10-13T16:08:00;23.20;99.90
11107;DHT22;5607;48.302;14.294;2023-10-13T16:10:46;23.00;99.90
11107;DHT22;5607;48.302;14.294;2023-10-13T16:13:33;22.90;99.90
11107;DHT22;5607;48.302;14.294;2023-10-13T16:16:20;22.80;99.90
11107;DHT22;5607;48.302;14.294;2023-10-13T16:19:10;22.70;99.90
11107;DHT22;5607;48.302;14.294;2023-10-13T16:21:56;22.50;99.90
11107;DHT22;5607;48.302;14.294;2023-10-13T16:24:42;22.40;99.90
11107;DHT22;5607;48.302;14.294;2023-10-13T16:27:33;22.20;99.90
11107;DHT22;5607;48.302;14.294;2023-10-13T16:30:25;22.10;99.90
11107;DHT22;5607;48.302;14.294;2023-10-13T16:33:11;21.90;99.90
11107;DHT22;5607;48.302;14.294;2023-10-13T16:36:01;21.80;99.90
11107;DHT22;5607;48.302;14.294;2023-10-13T16:38:51;21.70;99.90
11107;DHT22;5607;48.302;14.294;2023-10-13T16:41:37;21.60;99.90
11107;DHT22;5607;48.302;14.294;2023-10-13T16:44:23;21.50;99.90
11107;DHT22;5607;48.302;14.294;2023-10-13T16:47:13;21.50;99.90
11107;DHT22;5607;48.302;14.294;2023-10-13T16:50:00;21.30;99.90
11107;DHT22;5607;48.302;14.294;2023-10-13T16:52:48;21.20;99.90
11107;DHT22;5607;48.302;14.294;2023-10-13T16:55:36;21.10;99.90
11107;DHT22;5607;48.302;14.294;2023-10-13T16:58:22;21.00;99.90
11107;DHT22;5607;48.302;14.294;2023-10-13T17:01:09;20.90;99.90
11107;DHT22;5607;48.302;14.294;2023-10-13T17:03:55;20.90;99.90
11107;DHT22;5607;48.302;14.294;2023-10-13T17:06:41;20.80;99.90
11107;DHT22;5607;48.302;14.294;2023-10-13T17:09:28;20.80;99.90
11107;DHT22;5607;48.302;14.294;2023-10-13T17:12:14;20.70;99.90
11107;DHT22;5607;48.302;14.294;2023-10-13T17:15:00;20.70;99.90
11107;DHT22;5607;48.302;14.294;2023-10-13T17:17:56;20.60;99.90
11107;DHT22;5607;48.302;14.294;2023-10-13T17:20:43;20.60;99.90
11107;DHT22;5607;48.302;14.294;2023-10-13T17:23:31;20.50;99.90
11107;DHT22;5607;48.302;14.294;2023-10-13T17:26:21;20.40;99.90
11107;DHT22;5607;48.302;14.294;2023-10-13T17:29:09;20.40;99.90
11107;DHT22;5607;48.302;14.294;2023-10-13T17:31:56;20.30;99.90
11107;DHT22;5607;48.302;14.294;2023-10-13T17:34:44;20.30;99.90
11107;DHT22;5607;48.302;14.294;2023-10-13T17:37:30;20.30;99.90
11107;DHT22;5607;48.302;14.294;2023-10-13T17:40:18;20.20;99.90
11107;DHT22;5607;48.302;14.294;2023-10-13T17:43:05;20.20;99.90
11107;DHT22;5607;48.302;14.294;2023-10-13T17:45:52;20.10;99.90
11107;DHT22;5607;48.302;14.294;2023-10-13T17:48:38;20.10;99.90
11107;DHT22;5607;48.302;14.294;2023-10-13T17:51:25;20.10;99.90
11107;DHT22;5607;48.302;14.294;2023-10-13T17:54:11;20.00;99.90
11107;DHT22;5607;48.302;14.294;2023-10-13T17:56:57;20.00;99.90
11107;DHT22;5607;48.302;14.294;2023-10-13T17:59:43;20.00;99.90
11107;DHT22;5607;48.302;14.294;2023-10-13T18:02:33;19.90;99.90
11107;DHT22;5607;48.302;14.294;2023-10-13T18:05:19;19.90;99.90
11107;DHT22;5607;48.302;14.294;2023-10-13T18:08:05;19.90;99.90
11107;DHT22;5607;48.302;14.294;2023-10-13T18:10:52;19.80;99.90
11107;DHT22;5607;48.302;14.294;2023-10-13T18:13:39;19.70;99.90
11107;DHT22;5607;48.302;14.294;2023-10-13T18:16:25;19.80;99.90
11107;DHT22;5607;48.302;14.294;2023-10-13T18:19:12;19.80;99.90
11107;DHT22;5607;48.302;14.294;2023-10-13T18:22:00;19.60;99.90
11107;DHT22;5607;48.302;14.294;2023-10-13T18:24:47;19.50;99.90
11107;DHT22;5607;48.302;14.294;2023-10-13T18:27:34;19.50;99.90
11107;DHT22;5607;48.302;14.294;2023-10-13T18:30:21;19.40;99.90